sensor_id;sensor_type;location;lat;lon;timestamp;temperature;humidity
41922;DHT22;27609;51.002;5.354;2023-01-24T06:58:09;3.00;99.90
41922;DHT22;27609;51.002;5.354;2023-01-24T07:07:38;2.90;99.90
41922;DHT22;27609;51.002;5.354;2023-01-24T07:10:04;3.00;99.90
41922;DHT22;27609;51.002;5.354;2023-01-24T07:12:30;3.00;99.90
41922;DHT22;27609;51.002;5.354;2023-01-24T07:14:56;2.90;99.90
41922;DHT22;27609;51.002;5.354;2023-01-24T07:20:55;3.40;99.90
41922;DHT22;27609;51.002;5.354;2023-01-24T07:26:49;2.90;99.90
41922;DHT22;27609;51.002;5.354;2023-01-24T07:39:32;2.70;99.90
41922;DHT22;27609;51.002;5.354;2023-01-24T07:41:58;2.70;99.90
41922;DHT22;27609;51.002;5.354;2023-01-24T07:44:23;3.40;99.90
41922;DHT22;27609;51.002;5.354;2023-01-24T07:50:20;2.80;99.90
41922;DHT22;27609;51.002;5.354;2023-01-24T07:52:51;2.80;99.90
41922;DHT22;27609;51.002;5.354;2023-01-24T07:55:19;2.80;99.90
41922;DHT22;27609;51.002;5.354;2023-01-24T07:57:46;2.90;99.90
41922;DHT22;27609;51.002;5.354;2023-01-24T08:00:12;2.90;99.90
41922;DHT22;27609;51.002;5.354;2023-01-24T08:02:43;2.90;99.90
41922;DHT22;27609;51.002;5.354;2023-01-24T08:05:09;3.10;99.90
41922;DHT22;27609;51.002;5.354;2023-01-24T08:14:17;3.30;99.90
41922;DHT22;27609;51.002;5.354;2023-01-24T08:20:06;3.10;99.90
41922;DHT22;27609;51.002;5.354;2023-01-24T08:22:33;3.00;99.90
41922;DHT22;27609;51.002;5.354;2023-01-24T08:24:58;3.20;99.90
41922;DHT22;27609;51.002;5.354;2023-01-24T08:27:24;3.20;99.90
41922;DHT22;27609;51.002;5.354;2023-01-24T08:29:50;3.40;99.90
41922;DHT22;27609;51.002;5.354;2023-01-24T08:32:16;3.50;99.90
41922;DHT22;27609;51.002;5.354;2023-01-24T08:34:41;3.40;99.90
41922;DHT22;27609;51.002;5.354;2023-01-24T08:37:12;3.10;99.90
41922;DHT22;27609;51.002;5.354;2023-01-24T08:42:41;3.20;99.90
41922;DHT22;27609;51.002;5.354;2023-01-24T08:45:07;4.30;99.90
41922;DHT22;27609;51.002;5.354;2023-01-24T08:47:33;3.20;99.90
41922;DHT22;27609;51.002;5.354;2023-01-24T08:49:59;3.30;99.90
41922;DHT22;27609;51.002;5.354;2023-01-24T08:52:24;3.30;99.90
41922;DHT22;27609;51.002;5.354;2023-01-24T08:54:50;3.20;99.90
41922;DHT22;27609;51.002;5.354;2023-01-24T08:57:16;3.10;99.90
41922;DHT22;27609;51.002;5.354;2023-01-24T08:59:41;3.10;99.90
41922;DHT22;27609;51.002;5.354;2023-01-24T09:02:12;3.10;99.90
41922;DHT22;27609;51.002;5.354;2023-01-24T09:04:38;3.20;99.90
41922;DHT22;27609;51.002;5.354;2023-01-24T09:07:04;3.10;99.90
41922;DHT22;27609;51.002;5.354;2023-01-24T09:09:30;3.20;99.90
41922;DHT22;27609;51.002;5.354;2023-01-24T09:11:56;4.20;99.90
41922;DHT22;27609;51.002;5.354;2023-01-24T09:14:22;3.40;99.90
41922;DHT22;27609;51.002;5.354;2023-01-24T09:16:48;3.40;99.90
41922;DHT22;27609;51.002;5.354;2023-01-24T09:19:14;3.50;99.90
41922;DHT22;27609;51.002;5.354;2023-01-24T09:21:39;3.40;99.90
41922;DHT22;27609;51.002;5.354;2023-01-24T09:24:05;3.30;99.90
41922;DHT22;27609;51.002;5.354;2023-01-24T09:26:31;3.30;99.90
41922;DHT22;27609;51.002;5.354;2023-01-24T09:28:57;3.40;99.90
41922;DHT22;27609;51.002;5.354;2023-01-24T09:31:23;3.40;99.90
41922;DHT22;27609;51.002;5.354;2023-01-24T09:33:48;3.30;99.90
41922;DHT22;27609;51.002;5.354;2023-01-24T09:36:14;3.40;99.90
41922;DHT22;27609;51.002;5.354;2023-01-24T09:38:40;3.50;99.90
41922;DHT22;27609;51.002;5.354;2023-01-24T09:41:22;3.50;99.90
41922;DHT22;27609;51.002;5.354;2023-01-24T09:44:10;3.60;99.90
41922;DHT22;27609;51.002;5.354;2023-01-24T09:46:48;3.80;99.90
41922;DHT22;27609;51.002;5.354;2023-01-24T09:49:42;4.00;99.90
41922;DHT22;27609;51.002;5.354;2023-01-24T09:52:39;3.80;99.90
41922;DHT22;27609;51.002;5.354;2023-01-24T09:55:25;4.10;99.90
41922;DHT22;27609;51.002;5.354;2023-01-24T10:00:28;3.80;99.90
41922;DHT22;27609;51.002;5.354;2023-01-24T10:02:56;3.70;99.90
41922;DHT22;27609;51.002;5.354;2023-01-24T10:05:27;3.90;99.90
41922;DHT22;27609;51.002;5.354;2023-01-24T10:23:41;4.10;99.90
41922;DHT22;27609;51.002;5.354;2023-01-24T10:31:58;4.10;99.90
41922;DHT22;27609;51.002;5.354;2023-01-24T10:34:38;4.10;99.90
41922;DHT22;27609;51.002;5.354;2023-01-24T10:44:14;4.20;99.90
41922;DHT22;27609;51.002;5.354;2023-01-24T10:50:10;4.60;99.90
41922;DHT22;27609;51.002;5.354;2023-01-24T11:00:59;3.70;99.90
41922;DHT22;27609;51.002;5.354;2023-01-24T11:03:30;3.80;99.90
41922;DHT22;27609;51.002;5.354;2023-01-24T11:05:58;3.90;99.90
41922;DHT22;27609;51.002;5.354;2023-01-24T11:08:32;3.80;99.90
41922;DHT22;27609;51.002;5.354;2023-01-24T11:10:58;3.90;99.90
41922;DHT22;27609;51.002;5.354;2023-01-24T11:13:39;4.00;99.90
41922;DHT22;27609;51.002;5.354;2023-01-24T11:19:00;3.90;99.90
41922;DHT22;27609;51.002;5.354;2023-01-24T11:21:26;4.00;99.90
41922;DHT22;27609;51.002;5.354;2023-01-24T11:27:21;4.10;99.90
41922;DHT22;27609;51.002;5.354;2023-01-24T11:30:15;4.00;99.90
41922;DHT22;27609;51.002;5.354;2023-01-24T11:35:27;4.00;99.90
41922;DHT22;27609;51.002;5.354;2023-01-24T11:43:26;4.20;99.90
41922;DHT22;27609;51.002;5.354;2023-01-24T11:48:53;4.40;99.90
41922;DHT22;27609;51.002;5.354;2023-01-24T11:51:33;4.60;99.90
41922;DHT22;27609;51.002;5.354;2023-01-24T11:59:32;4.50;99.90
41922;DHT22;27609;51.002;5.354;2023-01-24T12:24:36;4.30;99.90
41922;DHT22;27609;51.002;5.354;2023-01-24T12:30:37;4.60;99.90
41922;DHT22;27609;51.002;5.354;2023-01-24T12:36:46;4.40;99.90
41922;DHT22;27609;51.002;5.354;2023-01-24T14:42:19;4.60;99.90
41922;DHT22;27609;51.002;5.354;2023-01-24T14:44:53;4.30;99.90
41922;DHT22;27609;51.002;5.354;2023-01-24T14:50:42;4.20;99.90
41922;DHT22;27609;51.002;5.354;2023-01-24T14:53:28;4.00;99.90
41922;DHT22;27609;51.002;5.354;2023-01-24T14:56:00;3.80;99.90
41922;DHT22;27609;51.002;5.354;2023-01-24T14:58:28;3.70;99.90
41922;DHT22;27609;51.002;5.354;2023-01-24T15:01:00;3.90;99.90
41922;DHT22;27609;51.002;5.354;2023-01-24T15:03:28;3.80;99.90
41922;DHT22;27609;51.002;5.354;2023-01-24T15:06:17;4.10;99.90
41922;DHT22;27609;51.002;5.354;2023-01-24T15:08:44;4.20;99.90
41922;DHT22;27609;51.002;5.354;2023-01-24T15:11:42;4.30;99.90
41922;DHT22;27609;51.002;5.354;2023-01-24T15:14:18;4.30;99.90
41922;DHT22;27609;51.002;5.354;2023-01-24T15:20:19;4.30;99.90
41922;DHT22;27609;51.002;5.354;2023-01-24T15:28:52;4.40;99.90
41922;DHT22;27609;51.002;5.354;2023-01-24T15:31:26;3.90;99.90
41922;DHT22;27609;51.002;5.354;2023-01-24T15:33:57;3.60;99.90
41922;DHT22;27609;51.002;5.354;2023-01-24T15:39:56;3.70;99.90
41922;DHT22;27609;51.002;5.354;2023-01-24T15:42:28;3.90;99.90
41922;DHT22;27609;51.002;5.354;2023-01-24T15:45:17;3.90;99.90
41922;DHT22;27609;51.002;5.354;2023-01-24T15:48:10;4.20;99.90
41922;DHT22;27609;51.002;5.354;2023-01-24T15:50:36;4.30;99.90
41922;DHT22;27609;51.002;5.354;2023-01-24T15:53:26;4.30;99.90
41922;DHT22;27609;51.002;5.354;2023-01-24T15:55:57;4.20;99.90
41922;DHT22;27609;51.002;5.354;2023-01-24T15:58:26;4.10;99.90
41922;DHT22;27609;51.002;5.354;2023-01-24T16:00:53;4.20;99.90
41922;DHT22;27609;51.002;5.354;2023-01-24T16:03:19;4.30;99.90
41922;DHT22;27609;51.002;5.354;2023-01-24T16:05:46;4.10;99.90
41922;DHT22;27609;51.002;5.354;2023-01-24T16:08:11;4.00;99.90
41922;DHT22;27609;51.002;5.354;2023-01-24T16:10:37;3.80;99.90
41922;DHT22;27609;51.002;5.354;2023-01-24T16:13:04;3.80;99.90
41922;DHT22;27609;51.002;5.354;2023-01-24T16:15:38;3.80;99.90
41922;DHT22;27609;51.002;5.354;2023-01-24T16:21:25;3.80;99.90
41922;DHT22;27609;51.002;5.354;2023-01-24T16:24:12;3.60;99.90
41922;DHT22;27609;51.002;5.354;2023-01-24T16:26:40;3.40;99.90
41922;DHT22;27609;51.002;5.354;2023-01-24T16:29:22;3.10;99.90
41922;DHT22;27609;51.002;5.354;2023-01-24T16:35:43;3.30;99.90
41922;DHT22;27609;51.002;5.354;2023-01-24T16:38:10;3.10;99.90
41922;DHT22;27609;51.002;5.354;2023-01-24T16:43:42;3.00;99.90
41922;DHT22;27609;51.002;5.354;2023-01-24T16:49:13;3.10;99.90
41922;DHT22;27609;51.002;5.354;2023-01-24T16:51:39;3.30;99.90
41922;DHT22;27609;51.002;5.354;2023-01-24T16:54:05;3.20;99.90
41922;DHT22;27609;51.002;5.354;2023-01-24T16:56:30;3.30;99.90
41922;DHT22;27609;51.002;5.354;2023-01-24T16:58:56;3.40;99.90
41922;DHT22;27609;51.002;5.354;2023-01-24T17:04:43;3.40;99.90
41922;DHT22;27609;51.002;5.354;2023-01-24T17:07:09;3.40;99.90
41922;DHT22;27609;51.002;5.354;2023-01-24T17:09:35;3.40;99.90
41922;DHT22;27609;51.002;5.354;2023-01-24T17:12:01;3.40;99.90
41922;DHT22;27609;51.002;5.354;2023-01-24T17:14:27;3.20;99.90
41922;DHT22;27609;51.002;5.354;2023-01-24T17:16:55;3.30;99.90
41922;DHT22;27609;51.002;5.354;2023-01-24T17:22:50;3.20;99.90
41922;DHT22;27609;51.002;5.354;2023-01-24T17:28:39;3.00;99.90
41922;DHT22;27609;51.002;5.354;2023-01-24T17:31:09;3.00;99.90
41922;DHT22;27609;51.002;5.354;2023-01-24T17:33:35;2.70;99.90
41922;DHT22;27609;51.002;5.354;2023-01-24T17:36:01;2.80;99.90
41922;DHT22;27609;51.002;5.354;2023-01-24T17:38:33;2.80;99.90
41922;DHT22;27609;51.002;5.354;2023-01-24T17:44:05;2.80;99.90
41922;DHT22;27609;51.002;5.354;2023-01-24T17:46:30;3.10;99.90
41922;DHT22;27609;51.002;5.354;2023-01-24T17:48:56;3.20;99.90
41922;DHT22;27609;51.002;5.354;2023-01-24T17:51:22;3.20;99.90
41922;DHT22;27609;51.002;5.354;2023-01-24T17:53:49;3.30;99.90
41922;DHT22;27609;51.002;5.354;2023-01-24T17:56:16;3.40;99.90
41922;DHT22;27609;51.002;5.354;2023-01-24T17:58:42;3.30;99.90
41922;DHT22;27609;51.002;5.354;2023-01-24T18:54:06;3.60;99.90
41922;DHT22;27609;51.002;5.354;2023-01-24T18:56:33;3.60;99.90
41922;DHT22;27609;51.002;5.354;2023-01-24T18:59:35;3.60;99.90
41922;DHT22;27609;51.002;5.354;2023-01-24T19:05:25;3.40;99.90
41922;DHT22;27609;51.002;5.354;2023-01-24T19:07:50;3.40;99.90
41922;DHT22;27609;51.002;5.354;2023-01-24T19:10:16;3.30;99.90
41922;DHT22;27609;51.002;5.354;2023-01-24T19:12:47;3.20;99.90
41922;DHT22;27609;51.002;5.354;2023-01-24T19:18:36;2.90;99.90
41922;DHT22;27609;51.002;5.354;2023-01-24T19:24:26;2.40;99.90
41922;DHT22;27609;51.002;5.354;2023-01-24T19:26:54;2.30;99.90
41922;DHT22;27609;51.002;5.354;2023-01-24T19:29:20;2.30;99.90
41922;DHT22;27609;51.002;5.354;2023-01-24T19:31:45;2.20;99.90
41922;DHT22;27609;51.002;5.354;2023-01-24T19:34:11;2.30;99.90
41922;DHT22;27609;51.002;5.354;2023-01-24T19:36:37;2.30;99.90
41922;DHT22;27609;51.002;5.354;2023-01-24T19:39:04;2.30;99.90
41922;DHT22;27609;51.002;5.354;2023-01-24T19:41:30;2.40;99.90
41922;DHT22;27609;51.002;5.354;2023-01-24T19:43:56;2.50;99.90
41922;DHT22;27609;51.002;5.354;2023-01-24T19:49:45;2.40;99.90
41922;DHT22;27609;51.002;5.354;2023-01-24T19:54:36;2.30;99.90
41922;DHT22;27609;51.002;5.354;2023-01-24T19:57:02;2.30;99.90
41922;DHT22;27609;51.002;5.354;2023-01-24T19:59:27;2.30;99.90
41922;DHT22;27609;51.002;5.354;2023-01-24T20:01:53;2.40;99.90
41922;DHT22;27609;51.002;5.354;2023-01-24T20:04:22;2.30;99.90
41922;DHT22;27609;51.002;5.354;2023-01-24T20:06:52;2.40;99.90
41922;DHT22;27609;51.002;5.354;2023-01-24T20:12:21;2.40;99.90
41922;DHT22;27609;51.002;5.354;2023-01-24T20:14:47;2.60;99.90
41922;DHT22;27609;51.002;5.354;2023-01-24T20:17:12;2.50;99.90
41922;DHT22;27609;51.002;5.354;2023-01-24T20:19:38;2.70;99.90
41922;DHT22;27609;51.002;5.354;2023-01-24T20:22:06;2.70;99.90
41922;DHT22;27609;51.002;5.354;2023-01-24T20:24:34;2.50;99.90
41922;DHT22;27609;51.002;5.354;2023-01-24T20:30:18;2.20;99.90
41922;DHT22;27609;51.002;5.354;2023-01-24T20:32:44;2.40;99.90
41922;DHT22;27609;51.002;5.354;2023-01-24T20:35:09;2.40;99.90
41922;DHT22;27609;51.002;5.354;2023-01-24T20:37:35;2.40;99.90
41922;DHT22;27609;51.002;5.354;2023-01-24T20:43:42;2.40;99.90
41922;DHT22;27609;51.002;5.354;2023-01-24T20:46:11;2.40;99.90
41922;DHT22;27609;51.002;5.354;2023-01-24T20:48:38;2.20;99.90
41922;DHT22;27609;51.002;5.354;2023-01-24T20:51:06;2.30;99.90
41922;DHT22;27609;51.002;5.354;2023-01-24T20:53:53;2.60;99.90
41922;DHT22;27609;51.002;5.354;2023-01-24T20:56:18;2.50;99.90
41922;DHT22;27609;51.002;5.354;2023-01-24T20:58:50;2.50;99.90
41922;DHT22;27609;51.002;5.354;2023-01-24T21:01:17;2.30;99.90
41922;DHT22;27609;51.002;5.354;2023-01-24T21:03:45;2.20;99.90
41922;DHT22;27609;51.002;5.354;2023-01-24T21:06:15;2.20;99.90
41922;DHT22;27609;51.002;5.354;2023-01-24T21:08:43;2.20;99.90
41922;DHT22;27609;51.002;5.354;2023-01-24T21:11:18;2.00;99.90
41922;DHT22;27609;51.002;5.354;2023-01-24T21:13:50;2.00;99.90
41922;DHT22;27609;51.002;5.354;2023-01-24T21:16:16;2.10;99.90
41922;DHT22;27609;51.002;5.354;2023-01-24T21:18:42;2.30;99.90
41922;DHT22;27609;51.002;5.354;2023-01-24T21:21:12;3.50;99.90
41922;DHT22;27609;51.002;5.354;2023-01-24T21:23:38;2.60;99.90
41922;DHT22;27609;51.002;5.354;2023-01-24T21:26:08;2.20;99.90
41922;DHT22;27609;51.002;5.354;2023-01-24T21:28:37;2.10;99.90
41922;DHT22;27609;51.002;5.354;2023-01-24T21:31:07;2.10;99.90
41922;DHT22;27609;51.002;5.354;2023-01-24T21:36:56;2.10;99.90
41922;DHT22;27609;51.002;5.354;2023-01-24T21:39:22;2.20;99.90
41922;DHT22;27609;51.002;5.354;2023-01-24T21:41:51;2.20;99.90
41922;DHT22;27609;51.002;5.354;2023-01-24T21:44:20;2.70;99.90
41922;DHT22;27609;51.002;5.354;2023-01-24T21:46:46;2.40;99.90
41922;DHT22;27609;51.002;5.354;2023-01-24T21:49:12;3.00;99.90
41922;DHT22;27609;51.002;5.354;2023-01-24T21:51:40;2.50;99.90
41922;DHT22;27609;51.002;5.354;2023-01-24T21:54:23;2.40;99.90
41922;DHT22;27609;51.002;5.354;2023-01-24T21:56:53;2.20;99.90
41922;DHT22;27609;51.002;5.354;2023-01-24T21:59:38;2.30;99.90
41922;DHT22;27609;51.002;5.354;2023-01-24T22:02:22;2.50;99.90
41922;DHT22;27609;51.002;5.354;2023-01-24T22:04:49;2.40;99.90
41922;DHT22;27609;51.002;5.354;2023-01-24T22:07:17;2.50;99.90
41922;DHT22;27609;51.002;5.354;2023-01-24T22:09:44;2.30;99.90
41922;DHT22;27609;51.002;5.354;2023-01-24T22:12:10;2.20;99.90
41922;DHT22;27609;51.002;5.354;2023-01-24T22:14:37;2.30;99.90
41922;DHT22;27609;51.002;5.354;2023-01-24T22:17:05;2.30;99.90
41922;DHT22;27609;51.002;5.354;2023-01-24T22:19:42;2.30;99.90
41922;DHT22;27609;51.002;5.354;2023-01-24T22:27:21;2.30;99.90
41922;DHT22;27609;51.002;5.354;2023-01-24T22:29:49;2.40;99.90
41922;DHT22;27609;51.002;5.354;2023-01-24T22:32:30;2.40;99.90
41922;DHT22;27609;51.002;5.354;2023-01-24T22:38:42;2.20;99.90
41922;DHT22;27609;51.002;5.354;2023-01-24T22:41:08;2.20;99.90
41922;DHT22;27609;51.002;5.354;2023-01-24T22:43:34;2.20;99.90
41922;DHT22;27609;51.002;5.354;2023-01-24T22:46:00;2.30;99.90
41922;DHT22;27609;51.002;5.354;2023-01-24T22:51:47;2.40;99.90
41922;DHT22;27609;51.002;5.354;2023-01-24T22:57:50;2.50;99.90
41922;DHT22;27609;51.002;5.354;2023-01-24T23:10:13;2.80;99.90
41922;DHT22;27609;51.002;5.354;2023-01-24T23:12:38;2.70;99.90
41922;DHT22;27609;51.002;5.354;2023-01-24T23:15:23;2.80;99.90
41922;DHT22;27609;51.002;5.354;2023-01-24T23:21:57;2.70;99.90
